sensor_id;sensor_type;location;lat;lon;timestamp;pressure;altitude;pressure_sealevel;temperature;humidity
71194;BME280;58903;47.210;8.618;2023-03-04T00:01:16;94513.22;;;25.36;38.34
71194;BME280;58903;47.210;8.618;2023-03-04T00:03:42;94515.25;;;25.35;38.80
71194;BME280;58903;47.210;8.618;2023-03-04T00:06:08;94513.22;;;25.36;38.15
71194;BME280;58903;47.210;8.618;2023-03-04T00:08:34;94510.25;;;25.34;38.93
71194;BME280;58903;47.210;8.618;2023-03-04T00:11:30;94504.25;;;25.35;37.97
71194;BME280;58903;47.210;8.618;2023-03-04T00:14:09;94503.25;;;25.33;38.29
71194;BME280;58903;47.210;8.618;2023-03-04T00:16:44;94506.25;;;25.35;38.82
71194;BME280;58903;47.210;8.618;2023-03-04T00:19:12;94506.00;;;25.33;38.65
71194;BME280;58903;47.210;8.618;2023-03-04T00:21:39;94501.75;;;25.32;38.37
71194;BME280;58903;47.210;8.618;2023-03-04T00:24:06;94508.75;;;25.33;38.53
71194;BME280;58903;47.210;8.618;2023-03-04T00:26:33;94504.72;;;25.34;38.71
71194;BME280;58903;47.210;8.618;2023-03-04T00:29:00;94503.25;;;25.33;38.45
71194;BME280;58903;47.210;8.618;2023-03-04T00:31:26;94510.75;;;25.32;38.19
71194;BME280;58903;47.210;8.618;2023-03-04T00:34:03;94503.75;;;25.31;38.74
71194;BME280;58903;47.210;8.618;2023-03-04T00:36:36;94511.50;;;25.33;37.89
71194;BME280;58903;47.210;8.618;2023-03-04T00:39:02;94508.75;;;25.33;38.40
71194;BME280;58903;47.210;8.618;2023-03-04T00:41:39;94510.25;;;25.34;38.40
71194;BME280;58903;47.210;8.618;2023-03-04T00:44:16;94511.25;;;25.31;38.58
71194;BME280;58903;47.210;8.618;2023-03-04T00:47:12;94517.78;;;25.33;38.23
71194;BME280;58903;47.210;8.618;2023-03-04T00:49:50;94515.50;;;25.32;37.93
71194;BME280;58903;47.210;8.618;2023-03-04T00:52:26;94512.75;;;25.32;38.90
71194;BME280;58903;47.210;8.618;2023-03-04T00:55:01;94512.75;;;25.32;38.73
71194;BME280;58903;47.210;8.618;2023-03-04T00:57:28;94514.25;;;25.33;38.68
71194;BME280;58903;47.210;8.618;2023-03-04T00:59:56;94508.75;;;25.33;38.41
71194;BME280;58903;47.210;8.618;2023-03-04T01:02:48;94509.28;;;25.31;38.54
71194;BME280;58903;47.210;8.618;2023-03-04T01:05:41;94512.75;;;25.32;38.64
71194;BME280;58903;47.210;8.618;2023-03-04T01:08:37;94507.25;;;25.32;37.86
71194;BME280;58903;47.210;8.618;2023-03-04T01:11:05;94503.50;;;25.29;38.21
71194;BME280;58903;47.210;8.618;2023-03-04T01:13:42;94512.75;;;25.32;37.89
71194;BME280;58903;47.210;8.618;2023-03-04T01:16:17;94510.00;;;25.32;38.47
71194;BME280;58903;47.210;8.618;2023-03-04T01:18:43;94503.00;;;25.31;38.81
71194;BME280;58903;47.210;8.618;2023-03-04T01:21:12;94503.00;;;25.31;38.81
71194;BME280;58903;47.210;8.618;2023-03-04T01:23:38;94497.25;;;25.29;38.51
71194;BME280;58903;47.210;8.618;2023-03-04T01:26:14;94496.00;;;25.30;38.38
71194;BME280;58903;47.210;8.618;2023-03-04T01:28:49;94498.00;;;25.29;37.92
71194;BME280;58903;47.210;8.618;2023-03-04T01:31:47;94500.25;;;25.31;37.78
71194;BME280;58903;47.210;8.618;2023-03-04T01:34:13;94496.00;;;25.30;37.92
71194;BME280;58903;47.210;8.618;2023-03-04T01:36:39;94493.25;;;25.30;38.62
71194;BME280;58903;47.210;8.618;2023-03-04T01:39:05;94489.72;;;25.29;38.42
71194;BME280;58903;47.210;8.618;2023-03-04T01:41:36;94497.25;;;25.29;38.19
71194;BME280;58903;47.210;8.618;2023-03-04T01:44:03;94491.75;;;25.29;37.90
71194;BME280;58903;47.210;8.618;2023-03-04T01:47:01;94491.75;;;25.29;38.79
71194;BME280;58903;47.210;8.618;2023-03-04T01:49:29;94487.72;;;25.30;37.91
71194;BME280;58903;47.210;8.618;2023-03-04T01:51:56;94482.50;;;25.26;38.48
71194;BME280;58903;47.210;8.618;2023-03-04T01:54:29;94476.47;;;25.28;37.80
71194;BME280;58903;47.210;8.618;2023-03-04T01:56:56;94476.72;;;25.30;38.50
71194;BME280;58903;47.210;8.618;2023-03-04T01:59:29;94484.22;;;25.29;38.17
71194;BME280;58903;47.210;8.618;2023-03-04T02:02:00;94469.72;;;25.29;37.98
71194;BME280;58903;47.210;8.618;2023-03-04T02:04:31;94468.22;;;25.28;38.50
71194;BME280;58903;47.210;8.618;2023-03-04T02:07:00;94461.97;;;25.27;38.15
71194;BME280;58903;47.210;8.618;2023-03-04T02:09:28;94469.72;;;25.29;38.61
71194;BME280;58903;47.210;8.618;2023-03-04T02:11:55;94465.72;;;25.30;37.81
71194;BME280;58903;47.210;8.618;2023-03-04T02:14:22;94465.72;;;25.30;38.30
71194;BME280;58903;47.210;8.618;2023-03-04T02:16:52;94473.22;;;25.29;37.78
71194;BME280;58903;47.210;8.618;2023-03-04T02:19:47;94467.69;;;25.29;38.22
71194;BME280;58903;47.210;8.618;2023-03-04T02:22:18;94459.22;;;25.27;37.83
71194;BME280;58903;47.210;8.618;2023-03-04T02:24:55;94464.72;;;25.27;38.16
71194;BME280;58903;47.210;8.618;2023-03-04T02:27:22;94456.97;;;25.26;38.13
71194;BME280;58903;47.210;8.618;2023-03-04T02:29:54;94459.22;;;25.27;38.06
71194;BME280;58903;47.210;8.618;2023-03-04T02:32:23;94452.97;;;25.27;38.32
71194;BME280;58903;47.210;8.618;2023-03-04T02:34:50;94458.47;;;25.27;38.04
71194;BME280;58903;47.210;8.618;2023-03-04T02:37:18;94454.22;;;25.26;38.25
71194;BME280;58903;47.210;8.618;2023-03-04T02:39:47;94461.22;;;25.27;38.20
71194;BME280;58903;47.210;8.618;2023-03-04T02:42:15;94456.97;;;25.26;38.60
71194;BME280;58903;47.210;8.618;2023-03-04T02:44:58;94464.00;;;25.27;38.74
71194;BME280;58903;47.210;8.618;2023-03-04T02:47:25;94463.47;;;25.28;37.95
71194;BME280;58903;47.210;8.618;2023-03-04T02:49:51;94464.00;;;25.27;38.47
71194;BME280;58903;47.210;8.618;2023-03-04T02:52:24;94466.75;;;25.27;38.74
71194;BME280;58903;47.210;8.618;2023-03-04T02:54:52;94473.47;;;25.26;38.65
71194;BME280;58903;47.210;8.618;2023-03-04T02:57:20;94467.00;;;25.23;38.01
71194;BME280;58903;47.210;8.618;2023-03-04T02:59:48;94467.97;;;25.26;38.53
71194;BME280;58903;47.210;8.618;2023-03-04T03:02:16;94469.97;;;25.25;38.32
71194;BME280;58903;47.210;8.618;2023-03-04T03:04:48;94463.75;;;25.25;38.03
71194;BME280;58903;47.210;8.618;2023-03-04T03:07:14;94465.00;;;25.24;37.87
71194;BME280;58903;47.210;8.618;2023-03-04T03:09:42;94464.22;;;25.23;38.29
71194;BME280;58903;47.210;8.618;2023-03-04T03:12:17;94458.97;;;25.25;38.17
71194;BME280;58903;47.210;8.618;2023-03-04T03:14:45;94454.72;;;25.24;37.86
71194;BME280;58903;47.210;8.618;2023-03-04T03:17:18;94448.72;;;25.26;38.33
71194;BME280;58903;47.210;8.618;2023-03-04T03:19:45;94449.97;;;25.25;38.09
71194;BME280;58903;47.210;8.618;2023-03-04T03:22:13;94454.72;;;25.24;37.96
71194;BME280;58903;47.210;8.618;2023-03-04T03:24:41;94456.22;;;25.25;38.66
71194;BME280;58903;47.210;8.618;2023-03-04T03:27:11;94458.47;;;25.27;38.08
71194;BME280;58903;47.210;8.618;2023-03-04T03:29:46;94461.97;;;25.27;38.62
71194;BME280;58903;47.210;8.618;2023-03-04T03:32:13;94457.25;;;25.22;38.47
71194;BME280;58903;47.210;8.618;2023-03-04T03:34:48;94464.47;;;25.25;38.25
71194;BME280;58903;47.210;8.618;2023-03-04T03:37:20;94460.47;;;25.26;38.69
71194;BME280;58903;47.210;8.618;2023-03-04T03:39:46;94458.97;;;25.25;38.38
71194;BME280;58903;47.210;8.618;2023-03-04T03:42:39;94456.22;;;25.25;38.80
71194;BME280;58903;47.210;8.618;2023-03-04T03:48:14;94455.50;;;25.25;38.11
71194;BME280;58903;47.210;8.618;2023-03-04T03:50:58;94458.25;;;25.25;38.46
71194;BME280;58903;47.210;8.618;2023-03-04T03:53:35;94451.47;;;25.26;37.96
71194;BME280;58903;47.210;8.618;2023-03-04T03:56:13;94455.50;;;25.25;38.77
71194;BME280;58903;47.210;8.618;2023-03-04T03:59:08;94455.50;;;25.25;38.71
71194;BME280;58903;47.210;8.618;2023-03-04T04:02:08;94459.72;;;25.26;37.82
71194;BME280;58903;47.210;8.618;2023-03-04T04:04:42;94464.47;;;25.25;38.74
71194;BME280;58903;47.210;8.618;2023-03-04T04:07:40;94452.72;;;25.25;38.65
71194;BME280;58903;47.210;8.618;2023-03-04T04:10:22;94460.25;;;25.24;38.28
71194;BME280;58903;47.210;8.618;2023-03-04T04:13:01;94457.47;;;25.24;38.28
71194;BME280;58903;47.210;8.618;2023-03-04T04:15:38;94457.47;;;25.24;38.14
71194;BME280;58903;47.210;8.618;2023-03-04T04:18:14;94446.97;;;25.23;38.50
71194;BME280;58903;47.210;8.618;2023-03-04T04:20:54;94451.97;;;25.24;38.56
71194;BME280;58903;47.210;8.618;2023-03-04T04:23:21;94451.97;;;25.24;38.25
71194;BME280;58903;47.210;8.618;2023-03-04T04:25:54;94458.97;;;25.25;37.89
71194;BME280;58903;47.210;8.618;2023-03-04T04:28:39;94444.22;;;25.23;38.51
71194;BME280;58903;47.210;8.618;2023-03-04T04:31:10;94459.47;;;25.24;38.42
71194;BME280;58903;47.210;8.618;2023-03-04T04:33:51;94462.22;;;25.24;38.70
71194;BME280;58903;47.210;8.618;2023-03-04T04:36:21;94450.75;;;25.20;37.96
71194;BME280;58903;47.210;8.618;2023-03-04T04:38:55;94453.97;;;25.24;38.71
71194;BME280;58903;47.210;8.618;2023-03-04T04:41:41;94459.47;;;25.24;38.44
71194;BME280;58903;47.210;8.618;2023-03-04T04:44:23;94447.47;;;25.21;37.94
71194;BME280;58903;47.210;8.618;2023-03-04T04:46:51;94455.22;;;25.23;38.12
71194;BME280;58903;47.210;8.618;2023-03-04T04:49:20;94452.47;;;25.23;37.81
71194;BME280;58903;47.210;8.618;2023-03-04T04:51:46;94455.22;;;25.23;37.99
71194;BME280;58903;47.210;8.618;2023-03-04T04:54:15;94449.72;;;25.23;38.53
71194;BME280;58903;47.210;8.618;2023-03-04T04:56:44;94450.97;;;25.22;38.68
71194;BME280;58903;47.210;8.618;2023-03-04T04:59:25;94455.22;;;25.23;38.76
71194;BME280;58903;47.210;8.618;2023-03-04T05:02:04;94457.97;;;25.23;37.89
71194;BME280;58903;47.210;8.618;2023-03-04T05:04:32;94460.00;;;25.22;38.12
71194;BME280;58903;47.210;8.618;2023-03-04T05:07:03;94461.47;;;25.23;38.34
71194;BME280;58903;47.210;8.618;2023-03-04T05:09:30;94460.72;;;25.23;38.11
71194;BME280;58903;47.210;8.618;2023-03-04T05:11:56;94464.75;;;25.22;37.86
71194;BME280;58903;47.210;8.618;2023-03-04T05:14:25;94467.00;;;25.23;38.46
71194;BME280;58903;47.210;8.618;2023-03-04T05:16:51;94467.75;;;25.24;38.18
71194;BME280;58903;47.210;8.618;2023-03-04T05:19:19;94461.47;;;25.23;38.12
71194;BME280;58903;47.210;8.618;2023-03-04T05:22:18;94473.25;;;25.24;38.49
71194;BME280;58903;47.210;8.618;2023-03-04T05:24:55;94460.72;;;25.23;38.39
71194;BME280;58903;47.210;8.618;2023-03-04T05:27:30;94472.50;;;25.23;37.87
71194;BME280;58903;47.210;8.618;2023-03-04T05:29:56;94473.25;;;25.24;38.18
71194;BME280;58903;47.210;8.618;2023-03-04T05:32:25;94468.00;;;25.20;38.08
71194;BME280;58903;47.210;8.618;2023-03-04T05:34:54;94471.00;;;25.22;39.01
71194;BME280;58903;47.210;8.618;2023-03-04T05:37:37;94473.75;;;25.22;38.59
71194;BME280;58903;47.210;8.618;2023-03-04T05:40:04;94469.50;;;25.21;38.31
71194;BME280;58903;47.210;8.618;2023-03-04T05:42:50;94472.50;;;25.23;38.84
71194;BME280;58903;47.210;8.618;2023-03-04T05:45:25;94472.50;;;25.23;38.75
71194;BME280;58903;47.210;8.618;2023-03-04T05:47:53;94474.50;;;25.23;38.11
71194;BME280;58903;47.210;8.618;2023-03-04T05:50:22;94476.50;;;25.22;38.57
71194;BME280;58903;47.210;8.618;2023-03-04T05:52:49;94475.75;;;25.22;38.85
71194;BME280;58903;47.210;8.618;2023-03-04T05:55:33;94473.53;;;25.20;38.46
71194;BME280;58903;47.210;8.618;2023-03-04T05:58:01;94475.00;;;25.21;37.84
71194;BME280;58903;47.210;8.618;2023-03-04T06:00:33;94475.75;;;25.22;38.07
71194;BME280;58903;47.210;8.618;2023-03-04T06:03:19;94476.00;;;25.24;38.51
71194;BME280;58903;47.210;8.618;2023-03-04T06:06:11;94473.25;;;25.24;38.97
71194;BME280;58903;47.210;8.618;2023-03-04T06:08:47;94479.50;;;25.24;37.87
71194;BME280;58903;47.210;8.618;2023-03-04T06:11:26;94483.50;;;25.23;38.20
71194;BME280;58903;47.210;8.618;2023-03-04T06:14:04;94473.75;;;25.22;38.61
71194;BME280;58903;47.210;8.618;2023-03-04T06:16:38;94482.50;;;25.21;38.13
71194;BME280;58903;47.210;8.618;2023-03-04T06:19:14;94484.53;;;25.20;38.72
71194;BME280;58903;47.210;8.618;2023-03-04T06:21:44;94490.75;;;25.21;38.11
71194;BME280;58903;47.210;8.618;2023-03-04T06:24:12;94485.78;;;25.25;38.33
71194;BME280;58903;47.210;8.618;2023-03-04T06:26:57;94499.53;;;25.25;38.59
71194;BME280;58903;47.210;8.618;2023-03-04T06:29:55;94499.53;;;25.25;38.92
71194;BME280;58903;47.210;8.618;2023-03-04T06:32:33;94498.78;;;25.24;38.90
71194;BME280;58903;47.210;8.618;2023-03-04T06:35:02;94494.75;;;25.31;38.24
71194;BME280;58903;47.210;8.618;2023-03-04T06:37:39;94502.50;;;25.32;38.16
71194;BME280;58903;47.210;8.618;2023-03-04T06:40:06;94503.75;;;25.31;37.86
71194;BME280;58903;47.210;8.618;2023-03-04T06:42:45;94504.25;;;25.30;38.41
71194;BME280;58903;47.210;8.618;2023-03-04T06:45:45;94504.25;;;25.30;38.75
71194;BME280;58903;47.210;8.618;2023-03-04T06:48:21;94509.75;;;25.30;38.54
71194;BME280;58903;47.210;8.618;2023-03-04T06:50:55;94504.25;;;25.30;38.39
71194;BME280;58903;47.210;8.618;2023-03-04T06:53:23;94506.75;;;25.33;37.99
71194;BME280;58903;47.210;8.618;2023-03-04T06:56:03;94507.47;;;25.34;38.27
71194;BME280;58903;47.210;8.618;2023-03-04T06:58:38;94512.75;;;25.32;38.41
71194;BME280;58903;47.210;8.618;2023-03-04T07:01:19;94512.75;;;25.32;38.76
71194;BME280;58903;47.210;8.618;2023-03-04T07:04:15;94519.53;;;25.31;38.61
71194;BME280;58903;47.210;8.618;2023-03-04T07:06:53;94521.53;;;25.30;38.23
71194;BME280;58903;47.210;8.618;2023-03-04T07:09:19;94519.53;;;25.31;37.93
71194;BME280;58903;47.210;8.618;2023-03-04T07:11:47;94526.28;;;25.30;38.15
71194;BME280;58903;47.210;8.618;2023-03-04T07:14:14;94527.78;;;25.31;37.78
71194;BME280;58903;47.210;8.618;2023-03-04T07:16:49;94531.78;;;25.30;37.98
71194;BME280;58903;47.210;8.618;2023-03-04T07:19:35;94522.03;;;25.29;37.87
71194;BME280;58903;47.210;8.618;2023-03-04T07:22:03;94532.53;;;25.30;38.64
71194;BME280;58903;47.210;8.618;2023-03-04T07:24:31;94541.31;;;25.29;38.59
71194;BME280;58903;47.210;8.618;2023-03-04T07:26:59;94548.31;;;25.30;38.10
71194;BME280;58903;47.210;8.618;2023-03-04T07:30:02;94539.28;;;25.29;39.01
71194;BME280;58903;47.210;8.618;2023-03-04T07:32:39;94543.81;;;25.27;38.42
71194;BME280;58903;47.210;8.618;2023-03-04T07:35:06;94551.28;;;25.32;38.28
71194;BME280;58903;47.210;8.618;2023-03-04T07:37:33;94557.31;;;25.30;38.70
71194;BME280;58903;47.210;8.618;2023-03-04T07:39:58;94555.56;;;25.33;38.65
71194;BME280;58903;47.210;8.618;2023-03-04T07:42:24;94549.81;;;25.31;38.40
71194;BME280;58903;47.210;8.618;2023-03-04T07:44:50;94545.06;;;25.31;38.56
71194;BME280;58903;47.210;8.618;2023-03-04T07:47:16;94552.06;;;25.32;38.47
71194;BME280;58903;47.210;8.618;2023-03-04T07:49:42;94551.28;;;25.32;38.78
71194;BME280;58903;47.210;8.618;2023-03-04T07:52:20;94545.31;;;25.28;38.64
71194;BME280;58903;47.210;8.618;2023-03-04T07:55:07;94552.56;;;25.25;39.17
71194;BME280;58903;47.210;8.618;2023-03-04T07:57:45;94551.84;;;25.25;38.57
71194;BME280;58903;47.210;8.618;2023-03-04T08:00:14;94556.59;;;25.24;39.10
71194;BME280;58903;47.210;8.618;2023-03-04T08:02:52;94550.84;;;25.22;38.69
71194;BME280;58903;47.210;8.618;2023-03-04T08:05:18;94555.84;;;25.24;38.76
71194;BME280;58903;47.210;8.618;2023-03-04T08:07:46;94555.06;;;25.23;38.81
71194;BME280;58903;47.210;8.618;2023-03-04T08:10:15;94549.56;;;25.23;38.99
71194;BME280;58903;47.210;8.618;2023-03-04T08:12:47;94544.81;;;25.24;38.76
71194;BME280;58903;47.210;8.618;2023-03-04T08:15:15;94557.34;;;25.25;38.84
71194;BME280;58903;47.210;8.618;2023-03-04T08:17:42;94554.84;;;25.27;38.77
71194;BME280;58903;47.210;8.618;2023-03-04T08:20:13;94555.84;;;25.24;38.71
71194;BME280;58903;47.210;8.618;2023-03-04T08:22:39;94559.59;;;25.26;39.03
71194;BME280;58903;47.210;8.618;2023-03-04T08:25:06;94554.06;;;25.26;38.88
71194;BME280;58903;47.210;8.618;2023-03-04T08:27:32;94557.59;;;25.27;39.50
71194;BME280;58903;47.210;8.618;2023-03-04T08:29:58;94550.28;;;25.29;39.11
71194;BME280;58903;47.210;8.618;2023-03-04T08:32:24;94557.31;;;25.30;39.48
71194;BME280;58903;47.210;8.618;2023-03-04T08:34:51;94552.31;;;25.29;39.69
71194;BME280;58903;47.210;8.618;2023-03-04T08:37:22;94556.31;;;25.28;38.96
71194;BME280;58903;47.210;8.618;2023-03-04T08:39:48;94561.06;;;25.27;39.74
71194;BME280;58903;47.210;8.618;2023-03-04T08:42:35;94555.56;;;25.27;39.28
71194;BME280;58903;47.210;8.618;2023-03-04T08:45:01;94554.06;;;25.26;39.05
71194;BME280;58903;47.210;8.618;2023-03-04T08:47:34;94547.06;;;25.25;39.61
71194;BME280;58903;47.210;8.618;2023-03-04T08:50:27;94554.06;;;25.26;39.01
71194;BME280;58903;47.210;8.618;2023-03-04T08:52:54;94554.06;;;25.26;38.64
71194;BME280;58903;47.210;8.618;2023-03-04T08:55:37;94556.31;;;25.28;39.32
71194;BME280;58903;47.210;8.618;2023-03-04T08:58:07;94546.81;;;25.29;39.49
71194;BME280;58903;47.210;8.618;2023-03-04T09:00:35;94553.81;;;25.30;39.62
71194;BME280;58903;47.210;8.618;2023-03-04T09:03:11;94554.28;;;25.34;39.52
71194;BME280;58903;47.210;8.618;2023-03-04T09:05:48;94544.56;;;25.33;39.12
71194;BME280;58903;47.210;8.618;2023-03-04T09:08:15;94543.28;;;25.34;38.65
71194;BME280;58903;47.210;8.618;2023-03-04T09:10:52;94546.28;;;25.36;38.61
71194;BME280;58903;47.210;8.618;2023-03-04T09:13:56;94544.56;;;25.33;39.49
71194;BME280;58903;47.210;8.618;2023-03-04T09:16:24;94543.28;;;25.34;38.60
71194;BME280;58903;47.210;8.618;2023-03-04T09:19:00;94544.03;;;25.34;38.54
71194;BME280;58903;47.210;8.618;2023-03-04T09:21:26;94537.78;;;25.34;39.11
71194;BME280;58903;47.210;8.618;2023-03-04T09:23:52;94544.78;;;25.35;38.74
71194;BME280;58903;47.210;8.618;2023-03-04T09:26:24;94537.28;;;25.35;38.95
71194;BME280;58903;47.210;8.618;2023-03-04T09:29:15;94529.75;;;25.36;38.60
71194;BME280;58903;47.210;8.618;2023-03-04T09:31:42;94544.78;;;25.35;38.52
71194;BME280;58903;47.210;8.618;2023-03-04T09:34:12;94531.03;;;25.35;39.04
71194;BME280;58903;47.210;8.618;2023-03-04T09:36:38;94542.03;;;25.35;39.00
71194;BME280;58903;47.210;8.618;2023-03-04T09:39:05;94537.53;;;25.37;39.36
71194;BME280;58903;47.210;8.618;2023-03-04T09:41:44;94541.28;;;25.40;39.01
71194;BME280;58903;47.210;8.618;2023-03-04T09:44:30;94532.25;;;25.45;39.17
71194;BME280;58903;47.210;8.618;2023-03-04T09:47:15;94537.00;;;25.50;39.32
71194;BME280;58903;47.210;8.618;2023-03-04T09:50:03;94541.47;;;25.59;38.95
71194;BME280;58903;47.210;8.618;2023-03-04T10:00:39;94545.00;;;25.54;38.43
71194;BME280;58903;47.210;8.618;2023-03-04T10:03:15;94537.72;;;25.56;38.50
71194;BME280;58903;47.210;8.618;2023-03-04T10:06:07;94541.97;;;25.63;37.91
71194;BME280;58903;47.210;8.618;2023-03-04T10:11:48;94540.69;;;25.69;38.81
71194;BME280;58903;47.210;8.618;2023-03-04T10:14:36;94539.66;;;25.72;38.56
71194;BME280;58903;47.210;8.618;2023-03-04T10:17:13;94536.91;;;25.72;39.42
71194;BME280;58903;47.210;8.618;2023-03-04T10:25:47;94536.16;;;25.77;39.12
71194;BME280;58903;47.210;8.618;2023-03-04T10:28:26;94534.63;;;25.76;38.51
71194;BME280;58903;47.210;8.618;2023-03-04T10:31:33;94524.38;;;25.77;38.89
71194;BME280;58903;47.210;8.618;2023-03-04T10:34:04;94529.88;;;25.77;39.22
71194;BME280;58903;47.210;8.618;2023-03-04T10:39:52;94522.06;;;25.86;39.15
71194;BME280;58903;47.210;8.618;2023-03-04T10:42:29;94516.00;;;25.99;38.85
71194;BME280;58903;47.210;8.618;2023-03-04T10:45:21;94515.66;;;26.08;39.08
71194;BME280;58903;47.210;8.618;2023-03-04T10:48:04;94514.94;;;26.07;38.40
71194;BME280;58903;47.210;8.618;2023-03-04T10:50:31;94517.44;;;26.05;38.21
71194;BME280;58903;47.210;8.618;2023-03-04T10:53:28;94518.19;;;26.06;38.18
71194;BME280;58903;47.210;8.618;2023-03-04T10:55:55;94514.44;;;26.03;38.11
71194;BME280;58903;47.210;8.618;2023-03-04T10:58:24;94498.94;;;26.00;38.88
71194;BME280;58903;47.210;8.618;2023-03-04T11:01:12;94501.94;;;26.02;38.60
71194;BME280;58903;47.210;8.618;2023-03-04T11:03:51;94495.66;;;26.02;38.52
71194;BME280;58903;47.210;8.618;2023-03-04T11:06:19;94500.41;;;26.01;38.79
71194;BME280;58903;47.210;8.618;2023-03-04T11:08:59;94501.16;;;26.02;39.30
71194;BME280;58903;47.210;8.618;2023-03-04T11:11:41;94496.19;;;26.00;38.79
71194;BME280;58903;47.210;8.618;2023-03-04T11:15:01;94494.91;;;26.01;38.50
71194;BME280;58903;47.210;8.618;2023-03-04T11:17:48;94488.16;;;26.02;38.43
71194;BME280;58903;47.210;8.618;2023-03-04T11:20:38;94486.88;;;26.03;38.51
71194;BME280;58903;47.210;8.618;2023-03-04T11:23:22;94484.38;;;26.05;39.15
71194;BME280;58903;47.210;8.618;2023-03-04T11:26:22;94496.13;;;26.06;38.64
71194;BME280;58903;47.210;8.618;2023-03-04T11:40:12;94474.31;;;26.08;39.28
71194;BME280;58903;47.210;8.618;2023-03-04T12:09:13;94464.56;;;26.07;39.26
71194;BME280;58903;47.210;8.618;2023-03-04T12:28:57;94429.16;;;26.16;38.46
71194;BME280;58903;47.210;8.618;2023-03-04T12:39:39;94425.63;;;26.22;38.94
71194;BME280;58903;47.210;8.618;2023-03-04T12:48:10;94418.03;;;26.28;39.11
71194;BME280;58903;47.210;8.618;2023-03-04T12:53:49;94412.31;;;26.26;38.89
71194;BME280;58903;47.210;8.618;2023-03-04T12:56:30;94409.53;;;26.26;38.79
71194;BME280;58903;47.210;8.618;2023-03-04T12:59:14;94406.28;;;26.27;38.64
71194;BME280;58903;47.210;8.618;2023-03-04T13:01:55;94404.75;;;26.32;38.81
71194;BME280;58903;47.210;8.618;2023-03-04T13:04:38;94402.94;;;26.34;38.79
71194;BME280;58903;47.210;8.618;2023-03-04T13:10:13;94388.91;;;26.38;38.19
71194;BME280;58903;47.210;8.618;2023-03-04T13:13:00;94389.13;;;26.40;38.56
71194;BME280;58903;47.210;8.618;2023-03-04T13:15:30;94386.81;;;26.44;38.07
71194;BME280;58903;47.210;8.618;2023-03-04T13:18:45;94386.06;;;26.43;38.41
71194;BME280;58903;47.210;8.618;2023-03-04T13:21:04;94385.81;;;26.47;38.39
71194;BME280;58903;47.210;8.618;2023-03-04T13:23:33;94388.03;;;26.48;38.24
71194;BME280;58903;47.210;8.618;2023-03-04T13:28:41;94378.97;;;26.53;38.02
71194;BME280;58903;47.210;8.618;2023-03-04T13:31:14;94374.94;;;26.54;38.40
71194;BME280;58903;47.210;8.618;2023-03-04T13:33:52;94371.88;;;26.58;38.53
71194;BME280;58903;47.210;8.618;2023-03-04T13:36:34;94372.13;;;26.60;38.50
71194;BME280;58903;47.210;8.618;2023-03-04T13:41:47;94364.31;;;26.64;38.56
71194;BME280;58903;47.210;8.618;2023-03-04T13:47:29;94364.97;;;26.70;37.88
71194;BME280;58903;47.210;8.618;2023-03-04T13:52:52;94366.47;;;26.71;37.81
71194;BME280;58903;47.210;8.618;2023-03-04T13:58:25;94359.94;;;26.74;38.41
71194;BME280;58903;47.210;8.618;2023-03-04T14:01:24;94362.19;;;26.75;38.58
71194;BME280;58903;47.210;8.618;2023-03-04T14:04:17;94358.38;;;26.78;38.37
71194;BME280;58903;47.210;8.618;2023-03-04T14:06:50;94346.09;;;26.79;37.86
71194;BME280;58903;47.210;8.618;2023-03-04T14:09:27;94354.06;;;26.83;38.61
71194;BME280;58903;47.210;8.618;2023-03-04T14:12:13;94351.75;;;26.87;38.24
71194;BME280;58903;47.210;8.618;2023-03-04T14:14:53;94356.03;;;26.88;37.73
71194;BME280;58903;47.210;8.618;2023-03-04T14:17:26;94356.25;;;26.90;37.89
71194;BME280;58903;47.210;8.618;2023-03-04T14:19:53;94349.69;;;26.93;37.47
71194;BME280;58903;47.210;8.618;2023-03-04T14:22:31;94349.91;;;26.95;37.61
71194;BME280;58903;47.210;8.618;2023-03-04T14:25:19;94344.59;;;26.97;37.91
71194;BME280;58903;47.210;8.618;2023-03-04T14:27:50;94343.78;;;27.02;37.96
71194;BME280;58903;47.210;8.618;2023-03-04T14:30:35;94337.75;;;27.04;37.63
71194;BME280;58903;47.210;8.618;2023-03-04T14:33:07;94342.00;;;27.05;37.57
71194;BME280;58903;47.210;8.618;2023-03-04T14:35:49;94341.47;;;27.06;37.80
71194;BME280;58903;47.210;8.618;2023-03-04T14:38:34;94334.94;;;27.09;37.41
71194;BME280;58903;47.210;8.618;2023-03-04T14:43:42;94336.63;;;27.12;37.58
71194;BME280;58903;47.210;8.618;2023-03-04T14:46:18;94333.59;;;27.16;38.17
71194;BME280;58903;47.210;8.618;2023-03-04T14:48:55;94332.31;;;27.17;37.71
71194;BME280;58903;47.210;8.618;2023-03-04T14:51:46;94329.75;;;27.19;37.99
71194;BME280;58903;47.210;8.618;2023-03-04T14:54:40;94328.50;;;27.20;37.54
71194;BME280;58903;47.210;8.618;2023-03-04T14:57:33;94325.97;;;27.22;37.61
71194;BME280;58903;47.210;8.618;2023-03-04T15:02:55;94325.44;;;27.23;37.54
71194;BME280;58903;47.210;8.618;2023-03-04T15:05:31;94321.41;;;27.24;36.97
71194;BME280;58903;47.210;8.618;2023-03-04T15:08:04;94321.63;;;27.26;37.42
71194;BME280;58903;47.210;8.618;2023-03-04T15:10:38;94320.13;;;27.25;37.44
71194;BME280;58903;47.210;8.618;2023-03-04T15:13:06;94303.56;;;27.25;37.41
71194;BME280;58903;47.210;8.618;2023-03-04T15:15:35;94314.31;;;27.29;37.62
71194;BME280;58903;47.210;8.618;2023-03-04T15:18:27;94307.00;;;27.31;37.58
71194;BME280;58903;47.210;8.618;2023-03-04T15:21:31;94315.53;;;27.33;37.55
71194;BME280;58903;47.210;8.618;2023-03-04T15:24:08;94315.53;;;27.33;37.49
71194;BME280;58903;47.210;8.618;2023-03-04T15:26:42;94301.50;;;27.31;37.75
71194;BME280;58903;47.210;8.618;2023-03-04T15:29:16;94307.47;;;27.35;37.83
71194;BME280;58903;47.210;8.618;2023-03-04T15:31:47;94307.69;;;27.37;37.59
71194;BME280;58903;47.210;8.618;2023-03-04T15:34:23;94307.16;;;27.39;37.63
71194;BME280;58903;47.210;8.618;2023-03-04T15:36:50;94303.91;;;27.40;37.65
71194;BME280;58903;47.210;8.618;2023-03-04T15:39:19;94310.16;;;27.41;37.58
71194;BME280;58903;47.210;8.618;2023-03-04T15:41:56;94302.63;;;27.41;37.43